Time;durP1;ratioP1;P1;durP2;ratioP2;P2;SDS_P1;SDS_P2;PMS_P1;PMS_P2;Temp;Humidity;BMP_temperature;BMP_pressure;BME280_temperature;BME280_humidity;BME280_pressure;Samples;Min_cycle;Max_cycle;Signal;HPM_P1;HPM_P2
2021/06/27 00:00:30;;;;;;;10.45;9.18;;;19.80;68.50;;;;;;5094281;28;20036;-37
2021/06/27 00:02:55;;;;;;;;;;;19.80;68.40;;;;;;5076681;28;20094;-36
2021/06/27 00:05:23;;;;;;;13.45;9.48;;;19.70;69.00;;;;;;5076037;28;20017;-36
2021/06/27 00:07:51;;;;;;;14.20;10.20;;;19.50;69.50;;;;;;5094159;28;20038;-36
2021/06/27 00:10:29;;;;;;;11.77;10.05;;;19.70;69.50;;;;;;5094089;28;20024;-37
2021/06/27 00:12:55;;;;;;;10.95;8.70;;;19.60;69.30;;;;;;5094578;28;20103;-36
2021/06/27 00:15:44;;;;;;;13.93;9.98;;;19.60;69.30;;;;;;5075957;28;20024;-37
2021/06/27 00:18:13;;;;;;;15.38;9.48;;;19.70;69.00;;;;;;5094577;28;20114;-37
2021/06/27 00:20:41;;;;;;;11.18;9.15;;;19.60;69.10;;;;;;5093771;28;20506;-37
2021/06/27 00:23:07;;;;;;;10.90;8.85;;;19.60;69.00;;;;;;5094243;28;20360;-37
2021/06/27 00:25:35;;;;;;;12.15;8.98;;;19.50;69.20;;;;;;5094434;28;20028;-36
2021/06/27 00:28:01;;;;;;;11.98;10.20;;;19.60;68.90;;;;;;5093849;28;20020;-36
2021/06/27 00:30:28;;;;;;;11.57;8.68;;;19.50;69.10;;;;;;5093929;28;20028;-36
2021/06/27 00:32:55;;;;;;;13.95;9.27;;;19.50;69.10;;;;;;5093462;28;20055;-36
2021/06/27 00:35:21;;;;;;;11.20;9.02;;;19.40;69.60;;;;;;5093958;28;20111;-36
2021/06/27 00:37:48;;;;;;;12.48;9.23;;;19.40;69.50;;;;;;5093811;28;20024;-36
2021/06/27 00:40:19;;;;;;;12.45;9.13;;;19.30;70.10;;;;;;5094022;28;20376;-36
2021/06/27 00:42:45;;;;;;;10.95;9.63;;;19.30;70.50;;;;;;5093712;28;20435;-36
2021/06/27 00:45:13;;;;;;;13.82;11.10;;;19.20;70.80;;;;;;5093660;28;20020;-37
2021/06/27 00:47:40;;;;;;;13.48;10.80;;;19.30;70.90;;;;;;5094115;28;20175;-37
2021/06/27 00:50:09;;;;;;;14.15;11.25;;;19.20;71.00;;;;;;5093443;28;20382;-37
2021/06/27 00:52:34;;;;;;;11.23;9.73;;;19.20;71.10;;;;;;5093806;28;20024;-37
2021/06/27 00:55:00;;;;;;;12.43;10.20;;;19.00;71.50;;;;;;5075421;28;20031;-37
2021/06/27 00:57:26;;;;;;;14.13;10.52;;;19.00;71.90;;;;;;5093698;28;20032;-37
2021/06/27 00:59:52;;;;;;;12.60;10.98;;;19.00;72.10;;;;;;5093596;28;20016;-37
2021/06/27 01:02:17;;;;;;;11.95;10.50;;;18.90;71.90;;;;;;5075829;28;20024;-37
2021/06/27 01:04:43;;;;;;;14.27;10.35;;;18.90;72.20;;;;;;5093895;28;20172;-37
2021/06/27 01:07:09;;;;;;;15.77;10.23;;;19.00;72.00;;;;;;5093750;28;20052;-36
2021/06/27 01:09:35;;;;;;;11.90;10.07;;;18.90;72.20;;;;;;5093345;28;20530;-36
2021/06/27 01:12:01;;;;;;;18.10;11.18;;;18.80;72.20;;;;;;5093383;28;20028;-36
2021/06/27 01:14:27;;;;;;;13.30;10.18;;;18.80;72.50;;;;;;5093692;28;20027;-36
2021/06/27 01:16:53;;;;;;;15.55;11.60;;;18.90;72.30;;;;;;5093359;28;20524;-38
2021/06/27 01:19:19;;;;;;;12.50;11.07;;;18.80;72.80;;;;;;5093843;28;20103;-37
2021/06/27 01:21:50;;;;;;;15.75;11.90;;;18.80;72.90;;;;;;5093187;28;20476;-36
2021/06/27 01:24:16;;;;;;;16.00;12.23;;;18.80;72.90;;;;;;5075267;28;20020;-37
2021/06/27 01:26:42;;;;;;;13.55;10.90;;;18.70;73.00;;;;;;5093318;28;20495;-36
2021/06/27 01:29:07;;;;;;;17.08;11.57;;;18.70;73.20;;;;;;5093166;28;20032;-36
2021/06/27 01:31:35;;;;;;;12.18;10.63;;;18.70;73.40;;;;;;5093197;28;20446;-36
2021/06/27 01:34:01;;;;;;;17.02;12.27;;;18.50;73.70;;;;;;5092956;28;20078;-36
2021/06/27 01:36:27;;;;;;;15.13;10.77;;;18.40;74.40;;;;;;5093407;28;20040;-37
2021/06/27 01:38:53;;;;;;;14.77;12.20;;;18.40;74.40;;;;;;5093219;28;20027;-37
2021/06/27 01:41:18;;;;;;;15.05;11.63;;;18.50;74.10;;;;;;5074970;28;20032;-36
2021/06/27 01:43:44;;;;;;;15.25;11.63;;;18.40;74.50;;;;;;5092962;28;20028;-36
2021/06/27 01:46:10;;;;;;;17.30;12.82;;;18.30;74.90;;;;;;5075065;28;20020;-37
2021/06/27 01:48:37;;;;;;;16.23;12.40;;;18.30;74.90;;;;;;5093049;28;20119;-37
2021/06/27 01:51:06;;;;;;;16.10;13.38;;;18.30;75.20;;;;;;5092967;28;20035;-37
2021/06/27 01:53:35;;;;;;;14.55;12.50;;;18.30;75.20;;;;;;5092989;28;20391;-37
2021/06/27 01:56:05;;;;;;;18.98;12.82;;;18.30;75.20;;;;;;5092995;28;20032;-37
2021/06/27 01:58:35;;;;;;;16.00;13.85;;;18.20;75.30;;;;;;5093179;28;20039;-37
2021/06/27 02:01:03;;;;;;;14.20;11.77;;;18.20;75.30;;;;;;5093212;28;20021;-37
2021/06/27 02:03:28;;;;;;;17.17;13.48;;;18.30;75.30;;;;;;5077281;28;20464;-37
2021/06/27 02:05:54;;;;;;;16.35;12.00;;;18.20;75.50;;;;;;5096457;28;20027;-37
2021/06/27 02:08:20;;;;;;;16.73;12.65;;;18.10;75.90;;;;;;5078312;28;20024;-37
2021/06/27 02:10:45;;;;;;;18.65;13.23;;;18.10;75.90;;;;;;5096353;28;20073;-37
2021/06/27 02:13:11;;;;;;;15.85;13.07;;;18.10;75.90;;;;;;5096390;28;20020;-38
2021/06/27 02:15:37;;;;;;;15.75;11.75;;;18.00;75.90;;;;;;5096573;28;20067;-37
2021/06/27 02:18:38;;;;;;;15.23;12.45;;;18.00;76.10;;;;;;5096478;28;20100;-37
2021/06/27 02:21:13;;;;;;;17.38;13.65;;;18.10;76.00;;;;;;5095513;28;20040;-37
2021/06/27 02:23:40;;;;;;;16.52;12.77;;;18.20;75.40;;;;;;5096106;28;20032;-37
2021/06/27 02:26:06;;;;;;;17.70;14.43;;;18.20;75.50;;;;;;5096060;28;20111;-35
2021/06/27 02:28:32;;;;;;;17.58;13.27;;;18.20;75.20;;;;;;5096766;28;20093;-37
2021/06/27 02:30:59;;;;;;;15.57;11.30;;;18.10;75.40;;;;;;5096041;28;20099;-37
2021/06/27 02:33:26;;;;;;;13.43;11.88;;;18.20;74.90;;;;;;5078100;28;20047;-36
2021/06/27 02:35:52;;;;;;;17.67;12.60;;;18.20;74.90;;;;;;5095834;28;20499;-35
2021/06/27 02:38:18;;;;;;;15.38;12.52;;;18.20;75.00;;;;;;5095686;28;20024;-35
2021/06/27 02:40:44;;;;;;;20.90;12.48;;;18.10;75.10;;;;;;5096635;28;20101;-50
2021/06/27 02:43:11;;;;;;;15.88;12.07;;;18.10;75.00;;;;;;5096151;28;20017;-36
2021/06/27 02:45:38;;;;;;;15.30;12.15;;;18.20;74.70;;;;;;5095690;28;20028;-36
2021/06/27 02:48:05;;;;;;;19.90;12.50;;;18.30;74.60;;;;;;5096046;28;20084;-36
2021/06/27 02:50:31;;;;;;;14.25;12.30;;;18.20;74.70;;;;;;5096307;28;20046;-36
2021/06/27 02:52:57;;;;;;;15.75;12.65;;;18.20;74.50;;;;;;5095541;28;20032;-36
2021/06/27 02:55:23;;;;;;;13.93;11.88;;;18.30;74.10;;;;;;5095604;28;20027;-36
2021/06/27 02:57:51;;;;;;;16.50;11.32;;;18.30;74.10;;;;;;5095527;28;20032;-36
2021/06/27 03:00:19;;;;;;;16.73;12.05;;;18.20;74.40;;;;;;5095270;28;20112;-36
2021/06/27 03:02:45;;;;;;;15.07;10.43;;;18.30;73.90;;;;;;5095422;28;20020;-36
2021/06/27 03:05:12;;;;;;;14.63;11.27;;;18.20;74.10;;;;;;5095414;28;20111;-36
2021/06/27 03:07:37;;;;;;;16.40;12.57;;;18.30;74.00;;;;;;5095319;28;20064;-35
2021/06/27 03:10:05;;;;;;;14.63;11.82;;;18.30;73.90;;;;;;5077545;28;20021;-36
2021/06/27 03:12:31;;;;;;;15.23;11.45;;;18.30;73.50;;;;;;5095530;28;20032;-35
2021/06/27 03:14:57;;;;;;;15.65;12.00;;;18.30;73.50;;;;;;5076699;28;20050;-36
2021/06/27 03:17:22;;;;;;;15.10;12.27;;;18.20;73.80;;;;;;5095221;28;20031;-36
2021/06/27 03:19:48;;;;;;;13.05;10.82;;;18.20;73.70;;;;;;5095511;28;20023;-36
2021/06/27 03:22:14;;;;;;;15.70;11.30;;;18.20;73.50;;;;;;5095066;28;20084;-36
2021/06/27 03:24:40;;;;;;;12.50;10.52;;;18.20;73.30;;;;;;5095087;28;20016;-36
2021/06/27 03:27:06;;;;;;;13.57;10.52;;;18.20;73.30;;;;;;5095060;28;20028;-39
2021/06/27 03:29:32;;;;;;;18.52;12.05;;;18.10;73.80;;;;;;5095296;28;20026;-37
2021/06/27 03:31:57;;;;;;;15.55;11.88;;;18.10;73.50;;;;;;5094972;28;20028;-36
2021/06/27 03:34:23;;;;;;;14.40;10.00;;;18.20;73.20;;;;;;5094701;28;20050;-36
2021/06/27 03:36:49;;;;;;;13.63;11.13;;;18.10;73.60;;;;;;5094932;28;20028;-43
2021/06/27 03:39:18;;;;;;;15.48;10.77;;;18.00;73.90;;;;;;5095406;28;20020;-36
2021/06/27 03:41:48;;;;;;;15.95;11.02;;;18.00;73.60;;;;;;5095081;28;20104;-37
2021/06/27 03:44:13;;;;;;;12.77;10.35;;;18.00;73.90;;;;;;5094981;28;20028;-36
2021/06/27 03:46:39;;;;;;;13.50;10.52;;;18.10;73.50;;;;;;5094562;28;20020;-36
2021/06/27 03:49:05;;;;;;;14.50;11.15;;;18.00;73.60;;;;;;5094542;28;20372;-36
2021/06/27 03:51:30;;;;;;;15.35;10.63;;;18.00;73.60;;;;;;5094479;28;20052;-36
2021/06/27 03:53:56;;;;;;;14.90;11.30;;;17.90;74.00;;;;;;5094680;28;20531;-37
2021/06/27 03:56:22;;;;;;;19.80;11.23;;;17.90;74.10;;;;;;5094449;28;20325;-35
2021/06/27 03:58:48;;;;;;;14.40;11.13;;;17.90;74.20;;;;;;5094227;28;20035;-37
2021/06/27 04:01:15;;;;;;;13.48;11.20;;;17.90;74.20;;;;;;5094251;28;20098;-36
2021/06/27 04:03:40;;;;;;;14.25;10.45;;;17.90;74.10;;;;;;5094131;28;20059;-36
2021/06/27 04:06:06;;;;;;;15.48;11.25;;;18.00;73.90;;;;;;5094295;28;20048;-38
2021/06/27 04:08:33;;;;;;;16.05;12.10;;;18.00;73.70;;;;;;5094791;28;20515;-36
2021/06/27 04:10:59;;;;;;;14.23;11.63;;;18.00;73.60;;;;;;5094356;28;20067;-43
2021/06/27 04:13:27;;;;;;;15.32;11.30;;;18.00;73.70;;;;;;5094277;28;20074;-36
2021/06/27 04:15:53;;;;;;;15.43;11.63;;;17.90;74.30;;;;;;5094557;28;20024;-36
2021/06/27 04:18:19;;;;;;;17.38;11.20;;;17.90;74.40;;;;;;5075759;28;20088;-36
2021/06/27 04:20:45;;;;;;;14.63;11.27;;;18.00;74.00;;;;;;5076238;28;20430;-36
2021/06/27 04:23:11;;;;;;;14.73;11.32;;;17.90;74.10;;;;;;5094634;28;20016;-36
2021/06/27 04:25:36;;;;;;;12.98;10.80;;;18.10;73.70;;;;;;5094191;28;20032;-36
2021/06/27 04:28:03;;;;;;;15.07;12.00;;;18.10;73.50;;;;;;5094058;28;20035;-36
2021/06/27 04:30:29;;;;;;;12.32;10.45;;;18.30;72.70;;;;;;5075989;28;20023;-36
2021/06/27 04:32:55;;;;;;;14.30;10.70;;;18.30;72.80;;;;;;5093886;28;20061;-35
2021/06/27 04:35:20;;;;;;;18.13;12.25;;;18.20;73.20;;;;;;5094104;28;20490;-36
2021/06/27 04:37:46;;;;;;;13.75;11.25;;;18.30;72.40;;;;;;5093760;28;20035;-36
2021/06/27 04:40:12;;;;;;;15.07;10.73;;;18.60;71.80;;;;;;5093854;28;20016;-36
2021/06/27 04:42:37;;;;;;;15.57;11.45;;;18.60;71.70;;;;;;5093835;28;20028;-37
2021/06/27 04:45:04;;;;;;;14.13;10.63;;;18.70;71.60;;;;;;5093791;28;20017;-36
2021/06/27 04:47:30;;;;;;;13.70;10.90;;;18.60;71.40;;;;;;5075642;28;20032;-36
2021/06/27 04:49:56;;;;;;;15.20;11.13;;;18.60;71.70;;;;;;5093713;28;20031;-36
2021/06/27 04:52:22;;;;;;;16.40;12.35;;;18.70;71.60;;;;;;5094588;28;20032;-36
2021/06/27 04:54:48;;;;;;;15.60;12.98;;;18.70;71.40;;;;;;5093795;28;20030;-45
2021/06/27 04:57:14;;;;;;;16.25;12.27;;;18.70;71.50;;;;;;5094171;28;20107;-36
2021/06/27 04:59:40;;;;;;;13.65;12.15;;;18.70;71.00;;;;;;5093463;28;20032;-36
2021/06/27 05:02:05;;;;;;;17.13;11.93;;;18.80;71.00;;;;;;5093467;28;20095;-36
2021/06/27 05:04:31;;;;;;;16.23;11.32;;;18.80;71.10;;;;;;5094175;28;20458;-37
2021/06/27 05:06:57;;;;;;;12.75;10.55;;;19.00;70.10;;;;;;5093375;28;20024;-36
2021/06/27 05:09:22;;;;;;;12.60;10.07;;;19.10;69.90;;;;;;5093393;28;20028;-36
2021/06/27 05:11:48;;;;;;;13.77;11.43;;;18.90;70.10;;;;;;5093424;28;20392;-35
2021/06/27 05:14:14;;;;;;;12.45;10.50;;;19.20;69.70;;;;;;5093520;28;20020;-36
2021/06/27 05:16:39;;;;;;;13.25;10.65;;;19.20;69.50;;;;;;5093546;28;20020;-35
2021/06/27 05:19:05;;;;;;;12.93;10.13;;;19.00;69.80;;;;;;5093689;28;20028;-38
2021/06/27 05:21:31;;;;;;;13.00;10.10;;;19.20;69.80;;;;;;5093222;28;20059;-38
2021/06/27 05:23:56;;;;;;;13.73;10.15;;;19.20;69.50;;;;;;5075090;28;20016;-38
2021/06/27 05:26:22;;;;;;;14.15;10.77;;;19.30;69.50;;;;;;5093295;28;20078;-37
2021/06/27 05:28:48;;;;;;;11.10;9.88;;;19.40;68.90;;;;;;5093004;28;20551;-36
2021/06/27 05:31:13;;;;;;;12.30;9.95;;;19.50;68.40;;;;;;5093009;28;20021;-37
2021/06/27 05:33:39;;;;;;;12.18;10.23;;;19.40;68.80;;;;;;5092699;28;20496;-37
2021/06/27 05:36:05;;;;;;;11.50;10.15;;;19.40;69.60;;;;;;5092970;28;20028;-48
2021/06/27 05:38:31;;;;;;;10.88;9.45;;;19.40;69.20;;;;;;5096794;28;20024;-36
2021/06/27 05:40:56;;;;;;;12.02;9.20;;;19.30;69.00;;;;;;5078858;28;20020;-36
2021/06/27 05:43:22;;;;;;;13.48;9.40;;;19.40;68.70;;;;;;5078538;28;20025;-36
2021/06/27 05:45:48;;;;;;;11.25;9.30;;;19.60;68.70;;;;;;5078496;28;20097;-36
2021/06/27 05:48:14;;;;;;;10.98;9.65;;;19.60;68.50;;;;;;5078490;28;20031;-37
2021/06/27 05:50:40;;;;;;;12.95;10.27;;;19.70;68.10;;;;;;5096804;28;20067;-36
2021/06/27 05:53:05;;;;;;;11.68;9.18;;;19.70;68.00;;;;;;5096593;28;20036;-37
2021/06/27 05:55:31;;;;;;;12.40;8.93;;;19.60;67.90;;;;;;5096389;28;20063;-36
2021/06/27 05:57:57;;;;;;;10.93;9.73;;;19.50;68.20;;;;;;5096510;28;20422;-36
2021/06/27 06:00:23;;;;;;;11.75;8.73;;;19.60;68.40;;;;;;5078294;28;20020;-36
2021/06/27 06:02:48;;;;;;;10.95;8.93;;;19.60;68.20;;;;;;5078479;28;20069;-36
2021/06/27 06:05:14;;;;;;;9.13;8.05;;;19.80;67.70;;;;;;5096544;28;20484;-37
2021/06/27 06:07:40;;;;;;;11.82;9.00;;;19.80;67.80;;;;;;5096157;28;20027;-37
2021/06/27 06:10:06;;;;;;;10.90;9.02;;;19.80;67.50;;;;;;5096266;28;20020;-37
2021/06/27 06:12:32;;;;;;;13.27;9.27;;;19.90;67.30;;;;;;5096562;28;20467;-37
2021/06/27 06:14:58;;;;;;;11.63;8.90;;;20.00;66.80;;;;;;5078564;28;20038;-37
2021/06/27 06:17:23;;;;;;;9.43;8.43;;;20.20;66.40;;;;;;5095949;28;20517;-37
2021/06/27 06:19:53;;;;;;;12.77;8.30;;;20.30;66.00;;;;;;5096173;28;20020;-42
2021/06/27 06:22:20;;;;;;;12.30;8.60;;;20.50;65.60;;;;;;5095643;28;20036;-37
2021/06/27 06:24:46;;;;;;;12.35;8.85;;;20.50;65.60;;;;;;5078565;28;20107;-37
2021/06/27 06:27:13;;;;;;;10.32;9.13;;;20.60;65.50;;;;;;5096410;28;20521;-37
2021/06/27 06:29:38;;;;;;;11.65;8.52;;;20.60;65.70;;;;;;5096132;28;20505;-37
2021/06/27 06:32:05;;;;;;;10.93;8.15;;;20.80;65.30;;;;;;5097087;28;20047;-38
2021/06/27 06:34:31;;;;;;;12.95;9.02;;;21.20;64.20;;;;;;5095507;28;20095;-37
2021/06/27 06:36:57;;;;;;;9.20;8.05;;;21.30;63.40;;;;;;5096507;28;20452;-38
2021/06/27 06:39:22;;;;;;;9.93;8.40;;;21.30;63.20;;;;;;5095708;28;20020;-38
2021/06/27 06:41:48;;;;;;;9.75;7.32;;;21.30;63.10;;;;;;5095780;28;20489;-38
2021/06/27 06:44:13;;;;;;;11.73;8.20;;;21.50;63.10;;;;;;5095731;28;20028;-36
2021/06/27 06:46:40;;;;;;;11.50;9.00;;;21.60;63.30;;;;;;5095705;28;20023;-37
2021/06/27 06:49:06;;;;;;;10.25;8.27;;;21.60;62.90;;;;;;5094741;28;20031;-36
2021/06/27 06:51:32;;;;;;;9.57;8.20;;;21.60;62.60;;;;;;5095983;28;20012;-36
2021/06/27 06:53:58;;;;;;;10.95;7.68;;;21.50;62.80;;;;;;5095599;28;20024;-37
2021/06/27 06:56:24;;;;;;;13.73;7.72;;;21.70;63.00;;;;;;5095458;28;20024;-37
2021/06/27 06:58:50;;;;;;;10.52;8.38;;;21.90;61.90;;;;;;5095663;28;20028;-37
2021/06/27 07:01:17;;;;;;;9.25;7.57;;;22.00;61.20;;;;;;5077502;28;20016;-40
2021/06/27 07:03:46;;;;;;;9.63;8.32;;;21.80;62.20;;;;;;5095596;28;20407;-37
2021/06/27 07:06:13;;;;;;;10.65;8.05;;;22.10;61.50;;;;;;5095377;28;20090;-38
2021/06/27 07:08:39;;;;;;;12.45;9.20;;;22.10;61.10;;;;;;5095604;28;20122;-37
2021/06/27 07:11:05;;;;;;;9.85;7.63;;;22.20;61.00;;;;;;5077719;28;20032;-37
2021/06/27 07:13:30;;;;;;;10.32;7.80;;;22.50;59.80;;;;;;5095520;28;20491;-37
2021/06/27 07:15:56;;;;;;;9.10;6.78;;;22.80;58.60;;;;;;5095455;28;20039;-38
2021/06/27 07:18:22;;;;;;;8.40;7.32;;;22.80;58.20;;;;;;5077476;28;20077;-38
2021/06/27 07:20:49;;;;;;;8.63;7.78;;;22.70;58.70;;;;;;5078598;28;20050;-38
2021/06/27 07:23:15;;;;;;;9.85;6.25;;;22.70;59.00;;;;;;5077217;28;20174;-38
2021/06/27 07:25:40;;;;;;;8.23;7.22;;;22.90;58.90;;;;;;5095561;28;20058;-38
2021/06/27 07:28:06;;;;;;;10.52;8.07;;;23.30;57.80;;;;;;5096354;28;20064;-37
2021/06/27 07:30:31;;;;;;;7.22;6.13;;;23.30;57.50;;;;;;5096423;28;20169;-37
2021/06/27 07:33:00;;;;;;;9.23;6.97;;;23.70;55.70;;;;;;5096938;28;20040;-38
2021/06/27 07:35:26;;;;;;;8.80;6.47;;;23.80;55.10;;;;;;5096656;28;20020;-37
2021/06/27 07:37:52;;;;;;;11.07;6.75;;;24.40;54.10;;;;;;5095288;28;20028;-40
2021/06/27 07:40:18;;;;;;;8.80;6.70;;;24.80;53.20;;;;;;5077434;28;20016;-38
2021/06/27 07:42:44;;;;;;;7.07;6.18;;;25.40;50.80;;;;;;5077330;28;20013;-37
2021/06/27 07:45:10;;;;;;;7.97;6.00;;;25.80;49.80;;;;;;5079605;28;20495;-37
2021/06/27 07:47:35;;;;;;;6.97;6.25;;;25.70;49.60;;;;;;5094617;28;20379;-38
2021/06/27 07:50:01;;;;;;;6.03;5.43;;;26.40;48.20;;;;;;5097803;28;20091;-37
2021/06/27 07:52:27;;;;;;;6.47;5.70;;;26.50;48.20;;;;;;5094929;28;20039;-37
2021/06/27 07:54:53;;;;;;;10.38;6.65;;;26.40;48.70;;;;;;5097693;28;20028;-38
2021/06/27 07:57:19;;;;;;;7.55;5.95;;;27.00;46.40;;;;;;5095234;28;20032;-38
2021/06/27 07:59:44;;;;;;;6.10;5.50;;;26.60;46.90;;;;;;5095503;28;20017;-39
2021/06/27 08:02:10;;;;;;;6.75;6.10;;;26.90;47.00;;;;;;5079525;28;20473;-38
2021/06/27 08:04:36;;;;;;;8.60;5.82;;;27.00;46.20;;;;;;5094760;28;20030;-37
2021/06/27 08:07:01;;;;;;;8.25;6.03;;;26.60;47.10;;;;;;5095237;28;20030;-38
2021/06/27 08:09:27;;;;;;;8.15;5.97;;;26.60;47.40;;;;;;5094358;28;20074;-37
2021/06/27 08:11:53;;;;;;;7.03;6.10;;;26.40;48.50;;;;;;5094108;28;20035;-37
2021/06/27 08:14:18;;;;;;;6.38;5.70;;;25.70;50.30;;;;;;5094070;28;20089;-38
2021/06/27 08:16:44;;;;;;;7.05;6.35;;;25.80;48.90;;;;;;5095012;28;20175;-38
2021/06/27 08:19:10;;;;;;;6.88;5.68;;;25.90;49.60;;;;;;5094600;28;20031;-36
2021/06/27 08:21:36;;;;;;;7.72;5.70;;;25.40;50.50;;;;;;5094216;28;20020;-38
2021/06/27 08:24:02;;;;;;;11.57;5.50;;;25.50;50.80;;;;;;5094001;28;20050;-38
2021/06/27 08:26:27;;;;;;;11.40;5.72;;;25.60;50.30;;;;;;5094327;28;20056;-38
2021/06/27 08:28:54;;;;;;;6.75;6.10;;;26.00;49.00;;;;;;5095127;28;20096;-38
2021/06/27 08:31:23;;;;;;;9.43;6.18;;;26.10;48.40;;;;;;5076045;28;20031;-38
2021/06/27 08:33:50;;;;;;;7.22;5.90;;;26.40;47.70;;;;;;5076614;28;20075;-37
2021/06/27 08:36:16;;;;;;;9.20;7.03;;;26.50;46.90;;;;;;5075703;28;20028;-38
2021/06/27 08:38:42;;;;;;;10.27;6.57;;;26.70;47.20;;;;;;5093762;28;20381;-38
2021/06/27 08:41:07;;;;;;;7.03;5.53;;;26.80;47.60;;;;;;5094238;28;20091;-37
2021/06/27 08:43:34;;;;;;;6.45;5.85;;;26.80;47.10;;;;;;5093928;28;20020;-37
2021/06/27 08:46:08;;;;;;;6.65;5.97;;;26.20;48.80;;;;;;5093644;28;20035;-38
2021/06/27 08:48:41;;;;;;;9.32;6.75;;;26.30;49.30;;;;;;5093833;28;20046;-37
2021/06/27 08:51:08;;;;;;;7.07;6.38;;;26.40;48.70;;;;;;5094299;28;20103;-38
2021/06/27 08:53:35;;;;;;;8.07;6.78;;;26.30;48.00;;;;;;5093965;28;20533;-37
2021/06/27 08:56:05;;;;;;;6.43;5.82;;;26.10;48.80;;;;;;5076238;28;20111;-38
2021/06/27 08:58:42;;;;;;;6.82;6.15;;;26.10;49.50;;;;;;5075338;28;20024;-37
2021/06/27 09:01:16;;;;;;;7.63;6.53;;;26.30;48.80;;;;;;5093835;28;20513;-37
2021/06/27 09:03:44;;;;;;;11.05;6.88;;;26.10;49.60;;;;;;5093494;28;20022;-37
2021/06/27 09:06:10;;;;;;;7.60;5.88;;;26.60;48.50;;;;;;5093442;28;20024;-38
2021/06/27 09:08:35;;;;;;;7.68;6.28;;;27.40;46.40;;;;;;5093797;28;20072;-38
2021/06/27 09:11:14;;;;;;;6.28;5.68;;;28.00;44.40;;;;;;5093531;28;20051;-38
2021/06/27 09:13:44;;;;;;;6.10;5.50;;;27.90;44.80;;;;;;5079772;28;20028;-39
2021/06/27 09:16:19;;;;;;;11.85;7.35;;;27.30;46.00;;;;;;5079607;28;20479;-43
2021/06/27 09:18:45;;;;;;;7.38;5.60;;;27.30;46.50;;;;;;5098102;28;20085;-38
2021/06/27 09:21:10;;;;;;;7.28;6.35;;;27.20;46.20;;;;;;5080190;28;20028;-40
2021/06/27 09:23:36;;;;;;;8.48;6.38;;;27.20;47.00;;;;;;5097875;28;20028;-38
2021/06/27 09:26:02;;;;;;;7.38;6.70;;;27.60;45.40;;;;;;5098096;28;20031;-38
2021/06/27 09:28:46;;;;;;;7.22;5.93;;;28.00;44.60;;;;;;5097128;28;20046;-42
2021/06/27 09:31:41;;;;;;;8.43;7.47;;;28.90;42.40;;;;;;5097404;28;20060;-38
2021/06/27 09:34:09;;;;;;;9.02;6.75;;;28.70;42.70;;;;;;5097218;28;20063;-39
2021/06/27 09:36:46;;;;;;;8.95;6.50;;;29.00;42.80;;;;;;5097170;28;20024;-38
2021/06/27 09:39:14;;;;;;;7.03;6.32;;;28.50;43.00;;;;;;5097268;28;20028;-39
2021/06/27 09:41:51;;;;;;;9.00;6.13;;;28.30;42.70;;;;;;5096925;28;20023;-39
2021/06/27 09:44:17;;;;;;;6.97;6.25;;;28.00;43.50;;;;;;5097379;28;20065;-38
2021/06/27 09:46:52;;;;;;;6.85;6.13;;;28.20;43.10;;;;;;5097381;28;20421;-38
2021/06/27 09:49:31;;;;;;;8.80;6.57;;;27.70;44.60;;;;;;5063029;28;20031;-39
2021/06/27 09:52:07;;;;;;;6.95;6.35;;;27.70;44.60;;;;;;5097063;28;20371;-38
2021/06/27 09:54:34;;;;;;;6.55;5.93;;;28.10;44.80;;;;;;5097048;28;20016;-38
2021/06/27 09:57:00;;;;;;;8.45;7.43;;;28.90;43.20;;;;;;5096725;28;20392;-38
2021/06/27 09:59:37;;;;;;;8.70;7.05;;;29.90;40.60;;;;;;5097003;28;20031;-38
2021/06/27 10:02:03;;;;;;;6.85;5.85;;;29.50;41.40;;;;;;5096849;28;20047;-38
2021/06/27 10:04:31;;;;;;;10.93;6.97;;;29.40;42.20;;;;;;5096401;28;20384;-38
2021/06/27 10:07:03;;;;;;;6.30;5.70;;;29.30;42.40;;;;;;5096712;28;20375;-38
2021/06/27 10:09:41;;;;;;;8.15;7.05;;;29.00;42.40;;;;;;5096807;28;20024;-37
2021/06/27 10:12:09;;;;;;;7.32;6.43;;;28.60;43.70;;;;;;5096612;28;20038;-38
2021/06/27 10:14:58;;;;;;;7.45;6.70;;;29.00;42.10;;;;;;5098125;28;20027;-38
2021/06/27 10:17:26;;;;;;;8.13;7.27;;;29.20;42.30;;;;;;5096354;28;20028;-38
2021/06/27 10:19:53;;;;;;;9.00;6.82;;;29.80;41.60;;;;;;5078197;28;20277;-38
2021/06/27 10:22:25;;;;;;;7.00;6.30;;;29.10;41.70;;;;;;5097077;28;20027;-37
2021/06/27 10:24:53;;;;;;;10.85;7.88;;;29.30;42.60;;;;;;5095599;28;20101;-36
2021/06/27 10:27:19;;;;;;;8.75;6.60;;;29.50;41.60;;;;;;5096454;28;20103;-37
2021/06/27 10:29:48;;;;;;;7.40;6.22;;;29.10;41.90;;;;;;5097009;28;20036;-38
2021/06/27 10:32:15;;;;;;;15.20;6.70;;;29.60;40.80;;;;;;5097012;28;20471;-38
2021/06/27 10:34:41;;;;;;;7.85;6.35;;;29.80;40.30;;;;;;5096015;28;20052;-38
2021/06/27 10:37:19;;;;;;;7.47;6.47;;;29.80;40.40;;;;;;5096042;28;20028;-37
2021/06/27 10:40:11;;;;;;;6.65;5.97;;;30.10;40.30;;;;;;5095999;28;20043;-38
2021/06/27 10:42:49;;;;;;;6.82;6.10;;;30.10;40.60;;;;;;5096500;28;20055;-38
2021/06/27 10:45:18;;;;;;;7.18;6.47;;;30.30;39.50;;;;;;5096596;28;20351;-37
2021/06/27 10:47:44;;;;;;;6.40;5.80;;;29.90;40.20;;;;;;5077479;28;20060;-42
2021/06/27 10:50:12;;;;;;;9.68;6.60;;;29.60;40.40;;;;;;5097167;28;20071;-37
2021/06/27 10:53:03;;;;;;;6.25;5.15;;;30.10;39.50;;;;;;5097203;28;20024;-36
2021/06/27 10:55:58;;;;;;;6.85;5.03;;;29.40;40.50;;;;;;5078010;28;20020;-38
2021/06/27 10:58:39;;;;;;;6.07;5.57;;;29.80;38.70;;;;;;5092634;28;20040;-38
2021/06/27 11:01:08;;;;;;;5.97;5.35;;;30.60;36.60;;;;;;5095670;28;20050;-38
2021/06/27 11:03:43;;;;;;;5.78;5.28;;;30.50;36.50;;;;;;5095534;28;20043;-38
2021/06/27 11:06:17;;;;;;;7.70;5.63;;;31.00;36.60;;;;;;5095573;28;20098;-38
2021/06/27 11:08:55;;;;;;;11.52;6.05;;;30.70;36.70;;;;;;5095015;28;20020;-38
2021/06/27 11:11:23;;;;;;;5.68;5.07;;;30.00;38.30;;;;;;5095123;28;20039;-37
2021/06/27 11:14:11;;;;;;;8.57;5.65;;;30.80;37.30;;;;;;5095319;28;20028;-39
2021/06/27 11:16:55;;;;;;;7.50;6.80;;;30.30;38.60;;;;;;5095593;28;20047;-38
2021/06/27 11:19:32;;;;;;;6.63;5.95;;;30.20;38.60;;;;;;5094799;28;20050;-37
2021/06/27 11:22:22;;;;;;;8.65;6.00;;;30.10;38.60;;;;;;5094767;28;20028;-38
2021/06/27 11:24:51;;;;;;;7.22;6.05;;;29.30;40.40;;;;;;5095246;28;20489;-39
2021/06/27 11:27:33;;;;;;;10.00;9.07;;;30.30;38.30;;;;;;5095045;28;20464;-38
2021/06/27 11:30:00;;;;;;;10.00;5.60;;;30.20;38.70;;;;;;5076579;28;20461;-37
2021/06/27 11:32:25;;;;;;;5.85;5.35;;;30.50;37.60;;;;;;5094405;28;20024;-38
2021/06/27 11:34:58;;;;;;;8.02;5.18;;;31.70;36.10;;;;;;5094298;28;20035;-38
2021/06/27 11:37:24;;;;;;;6.38;5.78;;;31.70;35.70;;;;;;5094951;28;20028;-38
2021/06/27 11:39:51;;;;;;;7.53;5.68;;;31.70;35.40;;;;;;5094971;28;20016;-39
2021/06/27 11:42:26;;;;;;;8.00;5.03;;;31.10;36.20;;;;;;5076277;28;20051;-38
2021/06/27 11:45:08;;;;;;;10.23;6.32;;;31.20;35.90;;;;;;5094812;28;20048;-38
2021/06/27 11:47:39;;;;;;;5.60;5.10;;;30.70;37.10;;;;;;5094676;28;20024;-38
2021/06/27 11:50:23;;;;;;;5.25;4.75;;;29.80;38.40;;;;;;5094915;28;20073;-37
2021/06/27 11:52:51;;;;;;;5.80;5.30;;;30.50;36.20;;;;;;5094727;28;20051;-37
2021/06/27 11:55:17;;;;;;;7.00;5.72;;;30.60;36.90;;;;;;5076450;28;20039;-38
2021/06/27 11:57:43;;;;;;;5.90;5.30;;;31.10;35.60;;;;;;5094294;28;20103;-40
2021/06/27 12:00:11;;;;;;;5.75;5.22;;;31.30;34.30;;;;;;5076526;28;20020;-38
2021/06/27 12:02:37;;;;;;;5.00;4.60;;;30.20;36.60;;;;;;5094021;28;20031;-38
2021/06/27 12:05:08;;;;;;;5.90;4.93;;;29.80;37.50;;;;;;5094006;28;20099;-39
2021/06/27 12:07:47;;;;;;;5.45;4.78;;;30.20;36.90;;;;;;5094593;28;20471;-39
2021/06/27 12:10:15;;;;;;;4.95;4.45;;;30.70;36.40;;;;;;5095038;28;20102;-38
2021/06/27 12:12:49;;;;;;;5.18;4.68;;;31.20;35.10;;;;;;5075932;28;20023;-40
2021/06/27 12:15:18;;;;;;;4.85;3.75;;;31.90;33.90;;;;;;5074663;28;20106;-38
2021/06/27 12:17:46;;;;;;;4.85;4.40;;;31.50;33.90;;;;;;5094671;28;20032;-39
2021/06/27 12:20:12;;;;;;;4.47;4.03;;;31.50;33.50;;;;;;5094160;28;20028;-39
2021/06/27 12:22:56;;;;;;;5.10;4.60;;;32.00;33.50;;;;;;5095966;28;20024;-51
2021/06/27 12:25:30;;;;;;;4.72;4.32;;;32.40;32.40;;;;;;5094411;28;20466;-50
2021/06/27 12:27:59;;;;;;;6.22;4.60;;;32.30;32.10;;;;;;5093983;28;20047;-53
2021/06/27 12:30:44;;;;;;;5.85;5.25;;;31.70;33.30;;;;;;5075749;28;20031;-50
2021/06/27 12:33:31;;;;;;;7.03;4.28;;;32.60;31.40;;;;;;5075768;28;20048;-53
2021/06/27 12:36:06;;;;;;;4.93;4.43;;;33.20;30.80;;;;;;5075555;28;20348;-51
2021/06/27 12:38:32;;;;;;;5.63;5.07;;;33.80;30.70;;;;;;5059730;28;20035;-53
2021/06/27 12:41:00;;;;;;;5.25;3.83;;;33.60;30.40;;;;;;5075921;28;20024;-51
2021/06/27 12:43:31;;;;;;;5.15;4.60;;;33.20;30.60;;;;;;5093896;28;20024;-50